sensor_id;sensor_type;location;lat;lon;timestamp;pressure;altitude;pressure_sealevel;temperature;humidity
38786;BME280;24535;45.508;12.252;2023-04-28T00:00:50;101913.47;;;15.71;55.46
38786;BME280;24535;45.508;12.252;2023-04-28T00:03:16;101918.91;;;15.70;54.73
38786;BME280;24535;45.508;12.252;2023-04-28T00:05:41;101914.78;;;15.66;55.17
38786;BME280;24535;45.508;12.252;2023-04-28T00:08:07;101908.16;;;15.71;55.73
38786;BME280;24535;45.508;12.252;2023-04-28T00:10:33;101908.72;;;15.76;56.49
38786;BME280;24535;45.508;12.252;2023-04-28T00:12:58;101909.97;;;15.83;55.93
38786;BME280;24535;45.508;12.252;2023-04-28T00:15:24;101902.13;;;15.82;54.80
38786;BME280;24535;45.508;12.252;2023-04-28T00:17:49;101897.00;;;15.79;55.34
38786;BME280;24535;45.508;12.252;2023-04-28T00:20:15;101896.38;;;15.75;55.25
38786;BME280;24535;45.508;12.252;2023-04-28T00:22:40;101903.81;;;15.70;55.31
38786;BME280;24535;45.508;12.252;2023-04-28T00:25:06;101900.44;;;15.68;55.30
38786;BME280;24535;45.508;12.252;2023-04-28T00:27:33;101891.81;;;15.65;55.47
38786;BME280;24535;45.508;12.252;2023-04-28T00:29:58;101883.91;;;15.63;55.42
38786;BME280;24535;45.508;12.252;2023-04-28T00:32:24;101895.50;;;15.62;55.45
38786;BME280;24535;45.508;12.252;2023-04-28T00:34:49;101891.88;;;15.63;55.95
38786;BME280;24535;45.508;12.252;2023-04-28T00:37:15;101883.06;;;15.63;55.66
38786;BME280;24535;45.508;12.252;2023-04-28T00:39:41;101884.75;;;15.64;55.60
38786;BME280;24535;45.508;12.252;2023-04-28T00:42:06;101881.25;;;15.63;55.76
38786;BME280;24535;45.508;12.252;2023-04-28T00:44:32;101881.50;;;15.60;55.33
38786;BME280;24535;45.508;12.252;2023-04-28T00:46:58;101885.09;;;15.59;55.20
38786;BME280;24535;45.508;12.252;2023-04-28T00:49:24;101877.34;;;15.56;56.00
38786;BME280;24535;45.508;12.252;2023-04-28T00:51:50;101873.63;;;15.58;55.51
38786;BME280;24535;45.508;12.252;2023-04-28T00:54:15;101874.59;;;15.57;55.78
38786;BME280;24535;45.508;12.252;2023-04-28T00:56:42;101877.22;;;15.57;55.91
38786;BME280;24535;45.508;12.252;2023-04-28T00:59:07;101873.09;;;15.53;55.41
38786;BME280;24535;45.508;12.252;2023-04-28T01:01:34;101867.97;;;15.50;55.98
38786;BME280;24535;45.508;12.252;2023-04-28T01:03:59;101871.72;;;15.48;55.80
38786;BME280;24535;45.508;12.252;2023-04-28T01:06:26;101872.78;;;15.45;55.75
38786;BME280;24535;45.508;12.252;2023-04-28T01:08:52;101864.94;;;15.44;55.90
38786;BME280;24535;45.508;12.252;2023-04-28T01:11:18;101871.28;;;15.41;56.46
38786;BME280;24535;45.508;12.252;2023-04-28T01:13:44;101863.19;;;15.43;56.24
38786;BME280;24535;45.508;12.252;2023-04-28T01:16:09;101865.00;;;15.42;55.92
38786;BME280;24535;45.508;12.252;2023-04-28T01:18:35;101866.19;;;15.38;55.91
38786;BME280;24535;45.508;12.252;2023-04-28T01:21:01;101866.38;;;15.35;55.92
38786;BME280;24535;45.508;12.252;2023-04-28T01:23:28;101871.09;;;15.31;56.17
38786;BME280;24535;45.508;12.252;2023-04-28T01:25:53;101871.16;;;15.30;56.38
38786;BME280;24535;45.508;12.252;2023-04-28T01:28:19;101874.78;;;15.29;56.44
38786;BME280;24535;45.508;12.252;2023-04-28T01:30:44;101878.41;;;15.28;55.88
38786;BME280;24535;45.508;12.252;2023-04-28T01:33:10;101875.09;;;15.24;56.30
38786;BME280;24535;45.508;12.252;2023-04-28T01:35:35;101883.16;;;15.23;55.99
38786;BME280;24535;45.508;12.252;2023-04-28T01:38:01;101880.72;;;15.20;56.11
38786;BME280;24535;45.508;12.252;2023-04-28T01:40:27;101880.09;;;15.16;55.78
38786;BME280;24535;45.508;12.252;2023-04-28T01:42:52;101881.13;;;15.14;55.87
38786;BME280;24535;45.508;12.252;2023-04-28T01:45:18;101884.00;;;15.11;56.12
38786;BME280;24535;45.508;12.252;2023-04-28T01:47:43;101879.75;;;15.08;56.54
38786;BME280;24535;45.508;12.252;2023-04-28T01:50:09;101881.56;;;15.07;56.37
38786;BME280;24535;45.508;12.252;2023-04-28T01:52:34;101884.31;;;15.06;56.19
38786;BME280;24535;45.508;12.252;2023-04-28T01:55:00;101880.16;;;15.02;56.34
38786;BME280;24535;45.508;12.252;2023-04-28T01:57:25;101885.47;;;15.02;56.17
38786;BME280;24535;45.508;12.252;2023-04-28T01:59:53;101888.13;;;15.02;56.41
38786;BME280;24535;45.508;12.252;2023-04-28T02:02:18;101889.94;;;15.01;56.88
38786;BME280;24535;45.508;12.252;2023-04-28T02:04:44;101888.22;;;15.00;56.19
38786;BME280;24535;45.508;12.252;2023-04-28T02:07:09;101883.97;;;14.98;56.50
38786;BME280;24535;45.508;12.252;2023-04-28T02:09:35;101892.88;;;14.97;56.54
38786;BME280;24535;45.508;12.252;2023-04-28T02:12:00;101902.84;;;14.93;56.59
38786;BME280;24535;45.508;12.252;2023-04-28T02:14:29;101895.94;;;14.91;56.82
38786;BME280;24535;45.508;12.252;2023-04-28T02:16:58;101901.34;;;14.89;56.46
38786;BME280;24535;45.508;12.252;2023-04-28T02:19:23;101904.13;;;14.88;56.47
38786;BME280;24535;45.508;12.252;2023-04-28T02:21:49;101907.94;;;14.83;56.45
38786;BME280;24535;45.508;12.252;2023-04-28T02:24:14;101899.22;;;14.81;56.49
38786;BME280;24535;45.508;12.252;2023-04-28T02:26:40;101895.81;;;14.79;56.75
38786;BME280;24535;45.508;12.252;2023-04-28T02:29:05;101897.72;;;14.77;56.80
38786;BME280;24535;45.508;12.252;2023-04-28T02:31:31;101892.59;;;14.74;56.85
38786;BME280;24535;45.508;12.252;2023-04-28T02:33:57;101906.81;;;14.73;56.54
38786;BME280;24535;45.508;12.252;2023-04-28T02:36:22;101902.59;;;14.71;56.78
38786;BME280;24535;45.508;12.252;2023-04-28T02:38:48;101904.28;;;14.72;56.28
38786;BME280;24535;45.508;12.252;2023-04-28T02:41:13;101904.16;;;14.73;56.38
38786;BME280;24535;45.508;12.252;2023-04-28T02:43:39;101905.25;;;14.71;57.14
38786;BME280;24535;45.508;12.252;2023-04-28T02:46:05;101901.81;;;14.69;56.87
38786;BME280;24535;45.508;12.252;2023-04-28T02:48:31;101903.44;;;14.71;57.10
38786;BME280;24535;45.508;12.252;2023-04-28T02:51:00;101899.94;;;14.71;57.34
38786;BME280;24535;45.508;12.252;2023-04-28T02:53:25;101906.94;;;14.72;56.86
38786;BME280;24535;45.508;12.252;2023-04-28T02:55:51;101908.50;;;14.74;57.10
38786;BME280;24535;45.508;12.252;2023-04-28T02:58:16;101900.47;;;14.76;56.71
38786;BME280;24535;45.508;12.252;2023-04-28T03:00:42;101893.38;;;14.76;57.09
38786;BME280;24535;45.508;12.252;2023-04-28T03:03:07;101891.56;;;14.77;57.06
38786;BME280;24535;45.508;12.252;2023-04-28T03:05:33;101890.50;;;14.79;56.16
38786;BME280;24535;45.508;12.252;2023-04-28T03:07:58;101894.97;;;14.79;56.91
38786;BME280;24535;45.508;12.252;2023-04-28T03:10:24;101886.06;;;14.80;56.97
38786;BME280;24535;45.508;12.252;2023-04-28T03:12:50;101892.22;;;14.80;56.59
38786;BME280;24535;45.508;12.252;2023-04-28T03:15:15;101889.44;;;14.82;56.47
38786;BME280;24535;45.508;12.252;2023-04-28T03:17:41;101898.34;;;14.81;56.94
38786;BME280;24535;45.508;12.252;2023-04-28T03:20:08;101894.84;;;14.80;57.55
38786;BME280;24535;45.508;12.252;2023-04-28T03:22:34;101908.78;;;14.84;57.83
38786;BME280;24535;45.508;12.252;2023-04-28T03:25:01;101897.75;;;14.90;57.79
38786;BME280;24535;45.508;12.252;2023-04-28T03:27:26;101891.38;;;14.93;56.58
38786;BME280;24535;45.508;12.252;2023-04-28T03:29:52;101894.16;;;14.91;56.53
38786;BME280;24535;45.508;12.252;2023-04-28T03:32:18;101896.06;;;14.89;56.76
38786;BME280;24535;45.508;12.252;2023-04-28T03:34:43;101901.56;;;14.86;56.69
38786;BME280;24535;45.508;12.252;2023-04-28T03:37:09;101895.72;;;14.81;56.55
38786;BME280;24535;45.508;12.252;2023-04-28T03:39:35;101901.22;;;14.78;56.86
38786;BME280;24535;45.508;12.252;2023-04-28T03:42:00;101905.97;;;14.73;56.27
38786;BME280;24535;45.508;12.252;2023-04-28T03:44:26;101917.53;;;14.72;57.08
38786;BME280;24535;45.508;12.252;2023-04-28T03:46:52;101915.09;;;14.69;57.06
38786;BME280;24535;45.508;12.252;2023-04-28T03:49:17;101910.44;;;14.72;57.03
38786;BME280;24535;45.508;12.252;2023-04-28T03:51:42;101907.13;;;14.69;57.07
38786;BME280;24535;45.508;12.252;2023-04-28T03:54:08;101903.94;;;14.64;56.81
38786;BME280;24535;45.508;12.252;2023-04-28T03:56:33;101904.66;;;14.66;56.73
38786;BME280;24535;45.508;12.252;2023-04-28T03:58:59;101890.88;;;14.61;57.13
38786;BME280;24535;45.508;12.252;2023-04-28T04:01:24;101886.59;;;14.58;56.74
38786;BME280;24535;45.508;12.252;2023-04-28T04:03:50;101893.72;;;14.57;56.93
38786;BME280;24535;45.508;12.252;2023-04-28T04:06:16;101890.41;;;14.54;56.31
38786;BME280;24535;45.508;12.252;2023-04-28T04:08:41;101884.56;;;14.49;57.18
38786;BME280;24535;45.508;12.252;2023-04-28T04:11:07;101894.28;;;14.48;57.01
38786;BME280;24535;45.508;12.252;2023-04-28T04:13:33;101895.09;;;14.50;57.12
38786;BME280;24535;45.508;12.252;2023-04-28T04:15:58;101901.88;;;14.54;57.46
38786;BME280;24535;45.508;12.252;2023-04-28T04:18:24;101899.31;;;14.53;57.02
38786;BME280;24535;45.508;12.252;2023-04-28T04:20:50;101899.50;;;14.50;57.19
38786;BME280;24535;45.508;12.252;2023-04-28T04:23:17;101902.34;;;14.47;57.19
38786;BME280;24535;45.508;12.252;2023-04-28T04:25:43;101910.50;;;14.44;56.97
38786;BME280;24535;45.508;12.252;2023-04-28T04:28:08;101906.03;;;14.44;57.23
38786;BME280;24535;45.508;12.252;2023-04-28T04:30:34;101906.88;;;14.45;57.59
38786;BME280;24535;45.508;12.252;2023-04-28T04:33:09;101913.88;;;14.46;57.79
38786;BME280;24535;45.508;12.252;2023-04-28T04:35:34;101918.34;;;14.45;57.82
38786;BME280;24535;45.508;12.252;2023-04-28T04:38:00;101920.06;;;14.46;57.24
38786;BME280;24535;45.508;12.252;2023-04-28T04:40:25;101924.47;;;14.46;57.41
38786;BME280;24535;45.508;12.252;2023-04-28T04:42:51;101928.84;;;14.47;57.13
38786;BME280;24535;45.508;12.252;2023-04-28T04:45:16;101929.72;;;14.47;57.27
38786;BME280;24535;45.508;12.252;2023-04-28T04:47:42;101926.28;;;14.45;57.32
38786;BME280;24535;45.508;12.252;2023-04-28T04:50:09;101921.84;;;14.46;57.40
38786;BME280;24535;45.508;12.252;2023-04-28T04:52:35;101920.13;;;14.45;56.99
38786;BME280;24535;45.508;12.252;2023-04-28T04:55:02;101920.97;;;14.45;57.62
38786;BME280;24535;45.508;12.252;2023-04-28T04:57:27;101922.72;;;14.46;56.92
38786;BME280;24535;45.508;12.252;2023-04-28T04:59:52;101925.38;;;14.46;57.10
38786;BME280;24535;45.508;12.252;2023-04-28T05:02:18;101933.91;;;14.51;57.80
38786;BME280;24535;45.508;12.252;2023-04-28T05:04:43;101941.56;;;14.56;57.17
38786;BME280;24535;45.508;12.252;2023-04-28T05:07:09;101937.75;;;14.60;57.57
38786;BME280;24535;45.508;12.252;2023-04-28T05:09:34;101939.16;;;14.66;57.66
38786;BME280;24535;45.508;12.252;2023-04-28T05:12:02;101938.84;;;14.70;57.76
38786;BME280;24535;45.508;12.252;2023-04-28T05:14:28;101936.75;;;14.75;57.91
38786;BME280;24535;45.508;12.252;2023-04-28T05:16:53;101946.97;;;14.81;57.17
38786;BME280;24535;45.508;12.252;2023-04-28T05:19:19;101945.72;;;14.87;57.08
38786;BME280;24535;45.508;12.252;2023-04-28T05:21:44;101941.91;;;14.91;57.32
38786;BME280;24535;45.508;12.252;2023-04-28T05:24:13;101938.97;;;14.96;56.82
38786;BME280;24535;45.508;12.252;2023-04-28T05:26:39;101936.00;;;15.00;57.15
38786;BME280;24535;45.508;12.252;2023-04-28T05:29:04;101936.84;;;15.01;57.06
38786;BME280;24535;45.508;12.252;2023-04-28T05:31:30;101937.50;;;15.04;57.17
38786;BME280;24535;45.508;12.252;2023-04-28T05:33:55;101929.09;;;15.11;56.65
38786;BME280;24535;45.508;12.252;2023-04-28T05:36:21;101927.03;;;15.16;57.06
38786;BME280;24535;45.508;12.252;2023-04-28T05:38:47;101929.03;;;15.25;57.31
38786;BME280;24535;45.508;12.252;2023-04-28T05:41:12;101925.03;;;15.32;56.83
38786;BME280;24535;45.508;12.252;2023-04-28T05:43:37;101937.78;;;15.40;56.94
38786;BME280;24535;45.508;12.252;2023-04-28T05:46:03;101931.09;;;15.47;56.59
38786;BME280;24535;45.508;12.252;2023-04-28T05:48:29;101934.19;;;15.53;56.96
38786;BME280;24535;45.508;12.252;2023-04-28T05:50:54;101929.03;;;15.65;57.47
38786;BME280;24535;45.508;12.252;2023-04-28T05:53:20;101929.22;;;15.74;57.22
38786;BME280;24535;45.508;12.252;2023-04-28T05:55:45;101934.84;;;15.82;56.80
38786;BME280;24535;45.508;12.252;2023-04-28T05:58:11;101934.31;;;15.90;56.75
38786;BME280;24535;45.508;12.252;2023-04-28T06:00:36;101936.31;;;15.99;56.48
38786;BME280;24535;45.508;12.252;2023-04-28T06:03:04;101927.81;;;16.07;56.81
38786;BME280;24535;45.508;12.252;2023-04-28T06:05:31;101924.72;;;16.13;56.56
38786;BME280;24535;45.508;12.252;2023-04-28T06:07:56;101927.78;;;16.20;55.97
38786;BME280;24535;45.508;12.252;2023-04-28T06:10:25;101937.88;;;16.27;56.54
38786;BME280;24535;45.508;12.252;2023-04-28T06:12:50;101948.72;;;16.37;56.31
38786;BME280;24535;45.508;12.252;2023-04-28T06:15:16;101939.84;;;16.49;56.04
38786;BME280;24535;45.508;12.252;2023-04-28T06:17:41;101939.03;;;16.60;55.75
38786;BME280;24535;45.508;12.252;2023-04-28T06:20:07;101948.91;;;16.71;56.08
38786;BME280;24535;45.508;12.252;2023-04-28T06:22:35;101952.63;;;16.81;56.15
38786;BME280;24535;45.508;12.252;2023-04-28T06:25:01;101944.91;;;16.89;56.50
38786;BME280;24535;45.508;12.252;2023-04-28T06:27:26;101957.56;;;16.98;56.44
38786;BME280;24535;45.508;12.252;2023-04-28T06:29:52;101955.06;;;17.08;55.78
38786;BME280;24535;45.508;12.252;2023-04-28T06:32:17;101953.50;;;17.17;55.71
38786;BME280;24535;45.508;12.252;2023-04-28T06:34:43;101956.22;;;17.28;55.09
38786;BME280;24535;45.508;12.252;2023-04-28T06:37:08;101953.94;;;17.35;55.56
38786;BME280;24535;45.508;12.252;2023-04-28T06:39:33;101952.97;;;17.36;54.81
38786;BME280;24535;45.508;12.252;2023-04-28T06:41:59;101956.13;;;17.41;55.18
38786;BME280;24535;45.508;12.252;2023-04-28T06:44:26;101960.38;;;17.43;54.13
38786;BME280;24535;45.508;12.252;2023-04-28T06:46:51;101956.88;;;17.43;54.61
38786;BME280;24535;45.508;12.252;2023-04-28T06:49:17;101959.63;;;17.41;54.02
38786;BME280;24535;45.508;12.252;2023-04-28T06:51:42;101963.75;;;17.45;54.36
38786;BME280;24535;45.508;12.252;2023-04-28T06:54:08;101965.22;;;17.49;54.38
38786;BME280;24535;45.508;12.252;2023-04-28T06:56:34;101966.06;;;17.50;54.41
38786;BME280;24535;45.508;12.252;2023-04-28T06:59:27;101958.69;;;17.53;54.87
38786;BME280;24535;45.508;12.252;2023-04-28T07:01:53;101959.53;;;17.54;54.85
38786;BME280;24535;45.508;12.252;2023-04-28T07:04:18;101961.63;;;17.62;55.64
38786;BME280;24535;45.508;12.252;2023-04-28T07:06:44;101965.66;;;17.67;55.05
38786;BME280;24535;45.508;12.252;2023-04-28T07:09:10;101970.50;;;17.73;55.17
38786;BME280;24535;45.508;12.252;2023-04-28T07:11:35;101968.25;;;17.80;54.58
38786;BME280;24535;45.508;12.252;2023-04-28T07:14:01;101973.81;;;17.88;55.28
38786;BME280;24535;45.508;12.252;2023-04-28T07:16:26;101966.22;;;17.95;55.34
38786;BME280;24535;45.508;12.252;2023-04-28T07:18:52;101970.19;;;18.00;54.37
38786;BME280;24535;45.508;12.252;2023-04-28T07:21:18;101968.63;;;18.09;54.33
38786;BME280;24535;45.508;12.252;2023-04-28T07:23:44;101963.66;;;18.16;54.34
38786;BME280;24535;45.508;12.252;2023-04-28T07:26:10;101963.06;;;18.23;53.79
38786;BME280;24535;45.508;12.252;2023-04-28T07:28:35;101956.59;;;18.26;54.37
38786;BME280;24535;45.508;12.252;2023-04-28T07:31:01;101968.25;;;18.36;54.04
38786;BME280;24535;45.508;12.252;2023-04-28T07:33:26;101961.47;;;18.43;53.96
38786;BME280;24535;45.508;12.252;2023-04-28T07:35:52;101960.94;;;18.49;53.45
38786;BME280;24535;45.508;12.252;2023-04-28T07:38:18;101963.13;;;18.56;53.61
38786;BME280;24535;45.508;12.252;2023-04-28T07:40:45;101962.63;;;18.62;53.31
38786;BME280;24535;45.508;12.252;2023-04-28T07:43:10;101964.22;;;18.64;54.12
38786;BME280;24535;45.508;12.252;2023-04-28T07:45:38;101970.88;;;18.70;53.61
38786;BME280;24535;45.508;12.252;2023-04-28T07:48:04;101967.00;;;18.74;53.41
38786;BME280;24535;45.508;12.252;2023-04-28T07:50:29;101960.28;;;18.80;53.28
38786;BME280;24535;45.508;12.252;2023-04-28T07:52:55;101969.03;;;18.82;52.75
38786;BME280;24535;45.508;12.252;2023-04-28T07:55:22;101965.13;;;18.86;53.38
38786;BME280;24535;45.508;12.252;2023-04-28T07:57:47;101969.41;;;18.88;53.18
38786;BME280;24535;45.508;12.252;2023-04-28T08:00:14;101974.34;;;18.93;53.19
38786;BME280;24535;45.508;12.252;2023-04-28T08:02:40;101972.28;;;18.96;53.24
38786;BME280;24535;45.508;12.252;2023-04-28T08:05:05;101979.06;;;19.00;52.81
38786;BME280;24535;45.508;12.252;2023-04-28T08:07:32;101986.78;;;19.03;53.35
38786;BME280;24535;45.508;12.252;2023-04-28T08:09:57;101984.72;;;19.07;53.73
38786;BME280;24535;45.508;12.252;2023-04-28T08:12:23;101986.75;;;19.15;52.66
38786;BME280;24535;45.508;12.252;2023-04-28T08:14:48;101988.94;;;19.21;52.39
38786;BME280;24535;45.508;12.252;2023-04-28T08:17:14;101989.41;;;19.26;52.62
38786;BME280;24535;45.508;12.252;2023-04-28T08:19:42;101983.53;;;19.32;52.39
38786;BME280;24535;45.508;12.252;2023-04-28T08:22:10;101971.34;;;19.39;52.61
38786;BME280;24535;45.508;12.252;2023-04-28T08:24:36;101975.19;;;19.46;52.69
38786;BME280;24535;45.508;12.252;2023-04-28T08:27:02;101971.72;;;19.56;51.97
38786;BME280;24535;45.508;12.252;2023-04-28T08:29:29;101969.44;;;19.62;52.11
38786;BME280;24535;45.508;12.252;2023-04-28T08:31:55;101967.09;;;19.69;51.67
38786;BME280;24535;45.508;12.252;2023-04-28T08:34:20;101971.75;;;19.76;51.54
38786;BME280;24535;45.508;12.252;2023-04-28T08:36:46;101975.75;;;19.82;51.52
38786;BME280;24535;45.508;12.252;2023-04-28T08:39:11;101974.94;;;19.91;50.92
38786;BME280;24535;45.508;12.252;2023-04-28T08:41:37;101973.16;;;20.02;51.41
38786;BME280;24535;45.508;12.252;2023-04-28T08:44:09;101963.34;;;20.12;50.64
38786;BME280;24535;45.508;12.252;2023-04-28T08:46:35;101957.31;;;20.19;49.84
38786;BME280;24535;45.508;12.252;2023-04-28T08:49:05;101957.50;;;20.28;48.85
38786;BME280;24535;45.508;12.252;2023-04-28T08:51:34;101954.56;;;20.31;48.36
38786;BME280;24535;45.508;12.252;2023-04-28T08:54:03;101952.72;;;20.31;48.37
38786;BME280;24535;45.508;12.252;2023-04-28T08:56:32;101947.78;;;20.27;48.46
38786;BME280;24535;45.508;12.252;2023-04-28T08:59:02;101961.16;;;20.27;48.23
38786;BME280;24535;45.508;12.252;2023-04-28T09:01:31;101956.22;;;20.22;48.18
38786;BME280;24535;45.508;12.252;2023-04-28T09:04:00;101959.00;;;20.20;47.32
38786;BME280;24535;45.508;12.252;2023-04-28T09:06:33;101949.97;;;20.21;48.15
38786;BME280;24535;45.508;12.252;2023-04-28T09:09:22;101946.34;;;20.22;47.33
38786;BME280;24535;45.508;12.252;2023-04-28T09:11:56;101949.03;;;20.22;47.47
38786;BME280;24535;45.508;12.252;2023-04-28T09:14:24;101947.19;;;20.23;47.44
38786;BME280;24535;45.508;12.252;2023-04-28T09:16:51;101945.38;;;20.23;47.70
38786;BME280;24535;45.508;12.252;2023-04-28T09:19:16;101941.84;;;20.23;47.22
38786;BME280;24535;45.508;12.252;2023-04-28T09:24:35;101938.19;;;20.24;46.76
38786;BME280;24535;45.508;12.252;2023-04-28T09:27:03;101933.81;;;20.23;47.19
38786;BME280;24535;45.508;12.252;2023-04-28T09:29:30;101929.16;;;20.25;45.97
38786;BME280;24535;45.508;12.252;2023-04-28T09:32:13;101931.84;;;20.25;44.89
38786;BME280;24535;45.508;12.252;2023-04-28T09:34:57;101927.22;;;20.27;45.49
38786;BME280;24535;45.508;12.252;2023-04-28T09:37:25;101932.00;;;20.33;45.82
38786;BME280;24535;45.508;12.252;2023-04-28T09:39:53;101931.47;;;20.39;46.28
38786;BME280;24535;45.508;12.252;2023-04-28T09:45:03;101937.84;;;20.58;45.75
38786;BME280;24535;45.508;12.252;2023-04-28T09:47:29;101929.13;;;20.65;45.67
38786;BME280;24535;45.508;12.252;2023-04-28T09:50:01;101938.31;;;20.72;45.95
38786;BME280;24535;45.508;12.252;2023-04-28T09:52:27;101933.38;;;20.78;45.97
38786;BME280;24535;45.508;12.252;2023-04-28T09:54:54;101928.31;;;20.84;45.66
38786;BME280;24535;45.508;12.252;2023-04-28T09:57:20;101928.03;;;20.87;45.42
38786;BME280;24535;45.508;12.252;2023-04-28T09:59:47;101931.84;;;20.94;46.02
38786;BME280;24535;45.508;12.252;2023-04-28T10:02:15;101930.03;;;20.95;45.47
38786;BME280;24535;45.508;12.252;2023-04-28T10:04:44;101928.88;;;20.97;45.37
38786;BME280;24535;45.508;12.252;2023-04-28T10:07:13;101930.72;;;20.97;44.83
38786;BME280;24535;45.508;12.252;2023-04-28T10:09:42;101920.00;;;20.97;45.20
38786;BME280;24535;45.508;12.252;2023-04-28T10:12:19;101901.13;;;20.98;44.70
38786;BME280;24535;45.508;12.252;2023-04-28T10:14:45;101906.16;;;21.02;44.85
38786;BME280;24535;45.508;12.252;2023-04-28T10:17:12;101897.16;;;21.03;44.76
38786;BME280;24535;45.508;12.252;2023-04-28T10:19:41;101903.38;;;21.03;44.31
38786;BME280;24535;45.508;12.252;2023-04-28T10:27:41;101893.09;;;20.98;44.17
38786;BME280;24535;45.508;12.252;2023-04-28T10:30:11;101876.13;;;20.98;44.18
38786;BME280;24535;45.508;12.252;2023-04-28T10:32:37;101877.28;;;20.95;44.00
38786;BME280;24535;45.508;12.252;2023-04-28T10:38:16;101877.13;;;20.97;43.82
38786;BME280;24535;45.508;12.252;2023-04-28T10:40:49;101870.94;;;20.96;44.08
38786;BME280;24535;45.508;12.252;2023-04-28T10:56:20;101856.53;;;20.97;42.68
38786;BME280;24535;45.508;12.252;2023-04-28T10:58:50;101860.38;;;20.95;42.19
38786;BME280;24535;45.508;12.252;2023-04-28T11:03:50;101854.16;;;20.94;40.39
38786;BME280;24535;45.508;12.252;2023-04-28T11:16:53;101838.38;;;20.91;41.69
38786;BME280;24535;45.508;12.252;2023-04-28T11:19:22;101835.69;;;20.91;42.26
38786;BME280;24535;45.508;12.252;2023-04-28T11:21:54;101831.19;;;20.92;42.37
38786;BME280;24535;45.508;12.252;2023-04-28T11:24:21;101824.25;;;20.89;41.92
38786;BME280;24535;45.508;12.252;2023-04-28T11:26:49;101822.56;;;20.88;42.20
38786;BME280;24535;45.508;12.252;2023-04-28T11:29:15;101810.03;;;20.89;42.50
38786;BME280;24535;45.508;12.252;2023-04-28T11:31:48;101800.44;;;20.86;42.60
38786;BME280;24535;45.508;12.252;2023-04-28T11:34:18;101800.44;;;20.86;42.61
38786;BME280;24535;45.508;12.252;2023-04-28T11:36:44;101806.09;;;20.83;42.83
38786;BME280;24535;45.508;12.252;2023-04-28T11:39:11;101808.63;;;20.85;43.17
38786;BME280;24535;45.508;12.252;2023-04-28T11:41:41;101798.75;;;20.85;43.58
38786;BME280;24535;45.508;12.252;2023-04-28T11:44:14;101796.91;;;20.86;43.47
38786;BME280;24535;45.508;12.252;2023-04-28T11:46:48;101796.22;;;20.84;43.74
38786;BME280;24535;45.508;12.252;2023-04-28T11:49:23;101798.06;;;20.83;43.53
38786;BME280;24535;45.508;12.252;2023-04-28T11:51:52;101798.19;;;20.82;43.19
38786;BME280;24535;45.508;12.252;2023-04-28T11:54:28;101805.25;;;20.83;43.27
38786;BME280;24535;45.508;12.252;2023-04-28T11:56:55;101806.09;;;20.83;43.39
38786;BME280;24535;45.508;12.252;2023-04-28T11:59:29;101796.06;;;20.85;41.90
38786;BME280;24535;45.508;12.252;2023-04-28T12:01:58;101801.41;;;20.85;43.03
38786;BME280;24535;45.508;12.252;2023-04-28T12:04:34;101805.78;;;20.86;43.11
38786;BME280;24535;45.508;12.252;2023-04-28T12:09:27;101795.06;;;20.86;43.34
38786;BME280;24535;45.508;12.252;2023-04-28T12:12:15;101795.06;;;20.86;43.69
38786;BME280;24535;45.508;12.252;2023-04-28T12:17:29;101806.94;;;20.84;42.77
38786;BME280;24535;45.508;12.252;2023-04-28T12:19:55;101794.66;;;20.81;42.79
38786;BME280;24535;45.508;12.252;2023-04-28T12:22:22;101800.03;;;20.81;42.72
38786;BME280;24535;45.508;12.252;2023-04-28T12:27:33;101794.09;;;20.78;42.40
38786;BME280;24535;45.508;12.252;2023-04-28T12:30:00;101797.78;;;20.77;41.92
38786;BME280;24535;45.508;12.252;2023-04-28T12:32:40;101790.47;;;20.79;42.30
38786;BME280;24535;45.508;12.252;2023-04-28T12:35:08;101796.66;;;20.79;42.02
38786;BME280;24535;45.508;12.252;2023-04-28T12:37:36;101783.09;;;20.81;42.35
38786;BME280;24535;45.508;12.252;2023-04-28T12:40:06;101782.94;;;20.82;42.70
38786;BME280;24535;45.508;12.252;2023-04-28T12:42:33;101783.94;;;20.81;41.83
38786;BME280;24535;45.508;12.252;2023-04-28T12:44:58;101779.75;;;20.79;41.25
38786;BME280;24535;45.508;12.252;2023-04-28T12:47:24;101775.06;;;20.81;41.78
38786;BME280;24535;45.508;12.252;2023-04-28T12:49:49;101780.59;;;20.79;40.69
38786;BME280;24535;45.508;12.252;2023-04-28T12:52:18;101779.75;;;20.79;40.97
38786;BME280;24535;45.508;12.252;2023-04-28T12:54:44;101772.53;;;20.79;40.76
38786;BME280;24535;45.508;12.252;2023-04-28T12:57:18;101765.19;;;20.81;41.17
38786;BME280;24535;45.508;12.252;2023-04-28T12:59:44;101766.03;;;20.82;39.96
38786;BME280;24535;45.508;12.252;2023-04-28T13:02:12;101759.72;;;20.83;40.36
38786;BME280;24535;45.508;12.252;2023-04-28T13:04:39;101750.69;;;20.84;39.81
38786;BME280;24535;45.508;12.252;2023-04-28T13:07:04;101744.47;;;20.83;40.49
38786;BME280;24535;45.508;12.252;2023-04-28T13:09:31;101746.84;;;20.86;39.60
38786;BME280;24535;45.508;12.252;2023-04-28T13:11:57;101740.81;;;20.84;40.26
38786;BME280;24535;45.508;12.252;2023-04-28T13:14:24;101730.25;;;20.83;39.35
38786;BME280;24535;45.508;12.252;2023-04-28T13:16:51;101734.63;;;20.84;38.88
38786;BME280;24535;45.508;12.252;2023-04-28T13:19:16;101731.09;;;20.83;38.96
38786;BME280;24535;45.508;12.252;2023-04-28T13:21:42;101734.75;;;20.82;38.85
38786;BME280;24535;45.508;12.252;2023-04-28T13:24:09;101727.69;;;20.81;38.68
38786;BME280;24535;45.508;12.252;2023-04-28T13:26:36;101724.19;;;20.81;39.03